Flight Track Log - Related Links

Times and Time Zones

All times are in EDT time to prevent confusion due to time zone crossing. See the FLG3861 flight status page for this flight to view local times or setup timezone preferences in your user account.


Time Position Orientation Groundspeed Altitude Reporting Facility
EDT Latitude Longitude Course Direction KTS MPH feet Rate Location/Type
Tue 11:34:14 PM 42.1947 -83.3514 188° South 151 174 1,400  Level Cleveland Center
Tue 11:34:38 PM 42.1778 -83.3547 188° South 153 176 2,300 1,976 Climbing Cleveland Center
Tue 11:35:39 PM 42.1236 -83.3497 176° South 220 253 4,200 1,856 Climbing Cleveland Center
Tue 11:36:15 PM 42.0836 -83.3456 176° South 224 258 5,300 2,466 Climbing Cleveland Center
Tue 11:36:52 PM 42.0439 -83.3244 158° South 293 337 7,200 3,000 Climbing Cleveland Center
Tue 11:37:15 PM 42.0303 -83.2836 114° Southeast 276 318 8,300 2,571 Climbing Cleveland Center
Tue 11:38:16 PM 42.0636 -83.1867 65° Northeast 290 334 10,800 1,672 Climbing Cleveland Center
Tue 11:39:17 PM 42.1106 -83.0783 60° Northeast 336 387 11,700 1,475 Climbing Cleveland Center
Tue 11:40:18 PM 42.1550 -82.9606 63° Northeast 354 407 13,800 1,934 Climbing Cleveland Center
Tue 11:41:18 PM 42.1578 -82.8236 88° East 367 422 15,600 1,587 Climbing Cleveland Center
Tue 11:42:19 PM 42.1617 -82.6836 88° East 374 430 17,000 1,328 Climbing Cleveland Center
Tue 11:43:20 PM 42.1656 -82.5392 88° East 385 443 18,300 1,190 Climbing Cleveland Center
Tue 11:44:20 PM 42.1675 -82.3942 89° East 389 448 19,400 1,140 Climbing Cleveland Center
Tue 11:45:21 PM 42.1700 -82.2456 89° East 396 456 20,600 984 Climbing Cleveland Center
Tue 11:46:22 PM 42.1728 -82.0986 88° East 404 465 21,400 843 Climbing Cleveland Center
Tue 11:47:22 PM 42.1761 -81.9386 88° East 419 482 22,300 942 Climbing Cleveland Center
Tue 11:48:23 PM 42.1778 -81.7789 89° East 422 486 23,300 934 Climbing Cleveland Center
Tue 11:49:24 PM 42.1808 -81.6158 88° East 428 493 24,200 893 Climbing Cleveland Center
Tue 11:50:24 PM 42.1822 -81.4517 89° East 431 496 25,100 793 Climbing Cleveland Center
Tue 11:51:25 PM 42.1853 -81.2864 89° East 435 501 25,800 645 Climbing Cleveland Center
Tue 11:52:25 PM 42.1867 -81.1194 89° East 440 506 26,400 595 Climbing Cleveland Center
Tue 11:53:26 PM 42.1872 -80.9522 90° East 442 509 27,000 298 Climbing Cleveland Center
Tue 11:54:26 PM 42.1883 -80.7819 89° East 448 516 27,000  Level Cleveland Center
Tue 11:55:27 PM 42.1900 -80.6058 89° East 461 531 27,000  Level Cleveland Center
Tue 11:56:27 PM 42.1925 -80.4272 89° East 470 541 27,000  Level Cleveland Center
Tue 11:57:28 PM 42.1967 -80.2492 88° East 470 541 27,000  Level Cleveland Center
Tue 11:58:28 PM 42.2003 -80.0686 88° East 478 550 27,000  Level Cleveland Center
Tue 11:59:29 PM 42.2039 -79.8964 88° East 475 547 27,000  Level Cleveland Center
Wed 12:00:29 AM 42.2064 -79.7200 89° East 473 544 27,000  Level Cleveland Center
Wed 12:01:30 AM 42.2092 -79.5419 89° East 477 549 27,000  Level Cleveland Center
Wed 12:02:30 AM 42.2114 -79.3308 89° East 473 544 27,000  Level Cleveland Center
Wed 12:03:31 AM 42.2144 -79.1536 89° East 476 548 27,000  Level Cleveland Center
Wed 12:04:31 AM 42.2156 -78.9792 89° East 470 541 27,000  Level Cleveland Center
Wed 12:05:32 AM 42.2172 -78.8000 89° East 470 541 27,000  Level Cleveland Center
Wed 12:06:32 AM 42.2192 -78.6250 89° East 469 540 27,000  Level Cleveland Center
Wed 12:07:33 AM 42.2200 -78.4517 90° East 466 536 27,000  Level Cleveland Center
Wed 12:08:33 AM 42.2211 -78.2778 89° East 467 537 27,000 -100 Level Cleveland Center
Wed 12:09:33 AM 42.2228 -78.1053 89° East 465 535 26,800 -1,190 Descending Cleveland Center
Wed 12:10:34 AM 42.2239 -77.9314 89° East 467 537 24,600 -2,083 Descending Cleveland Center
Wed 12:11:34 AM 42.2239 -77.7594 90° East 466 536 22,600 -2,033 Descending Cleveland Center
Wed 12:12:35 AM 42.2225 -77.5936 91° East 454 522 20,500 -2,083 Descending Cleveland Center
Wed 12:13:35 AM 42.2225 -77.4361 90° East 431 496 18,400 -1,700 Descending Cleveland Center
Wed 12:14:35 AM 42.2214 -77.2836 91° East 415 478 17,100 -694 Descending Cleveland Center
Wed 12:15:36 AM 42.2203 -77.1281 91° East 417 480 17,000 -992 Descending Cleveland Center
Wed 12:16:36 AM 42.2194 -76.9767 90° East 409 471 15,100 -2,132 Descending Cleveland Center
Wed 12:17:37 AM 42.2189 -76.8344 90° East 386 444 12,700 -1,983 Descending Cleveland Center
Wed 12:18:37 AM 42.2167 -76.7081 91° East 346 398 11,100 -1,700 Descending Cleveland Center
Wed 12:19:37 AM 42.2167 -76.6022 90° East 290 334 9,300 -1,835 Descending Cleveland Center
Wed 12:20:38 AM 42.2150 -76.4989 91° East 278 320 7,400 -2,083 Descending Cleveland Center
Wed 12:21:38 AM 42.2142 -76.3836 91° East 271 312 5,100 -1,200 Descending Cleveland Center
Wed 12:22:38 AM 42.2164 -76.2883 88° East 260 299 5,000 -850 Descending Cleveland Center
Wed 12:23:38 AM 42.2394 -76.2050 69° East 248 285 3,400 -942 Descending Cleveland Center
Wed 12:24:39 AM 42.2589 -76.1211 73° East 244 281 3,100 -122 Descending Cleveland Center
Wed 12:26:05 AM 42.2711 -76.0336 79° East 194 223 3,100 -370 Level New York Center
Wed 12:27:05 AM 42.2389 -76.0086 150° Southeast 124 143 2,200 950 Descending New York Center
Wed 12:28:05 AM 42.2264 -75.9600 109° East 124 143 5,000 2,800 Climbing New York Center

Login

Don't have an account? Register now (free) for customized features, flight alerts, and more!